Paxton, Texas
Current Conditions -  °F | °C
As of 12:56 AM on Monday 24 Nov 2014 (Local Time) from KSHV Reporting Station
Clear Clear  
Wind Chill: 55°   Ceiling: Unl
Heat Index: 55°   Visibility: 10mi
Dew Point: 45°   Wind: 13mph
Humidity: 69%   Direction: 290°WNW
Pressure: 29.71"   Gusts: 21mph
Location:  31.9194°N, 94.0667°W
Report Text: KSHV 240656Z 29011G18KT 10SM CLR 13/07 A2971 RMK AO2 PK WND 28026/0626 SLP058 T01280072
Loading
Personal Weather Stations






























Interactive Weather Map New forecast layout! Learn more

10-Day Weather Forecast

Advertisements
Track Severe Weather on mobile